Time;durP1;ratioP1;P1;durP2;ratioP2;P2;SDS_P1;SDS_P2;PMS_P1;PMS_P2;Temp;Humidity;BMP_temperature;BMP_pressure;BME280_temperature;BME280_humidity;BME280_pressure;Samples;Min_cycle;Max_cycle;Signal;HPM_P1;HPM_P2
2023/08/10 00:00:58;;;;;;;1.30;1.20;;;;;;;20.55;55.62;94812.00;5043099;28;20902;-76
2023/08/10 00:03:24;;;;;;;2.22;1.25;;;;;;;20.46;56.03;94807.50;5046428;28;20484;-76
2023/08/10 00:05:49;;;;;;;3.93;1.17;;;;;;;20.61;56.20;94829.63;5043310;28;20900;-76
2023/08/10 00:08:15;;;;;;;1.30;1.20;;;;;;;20.67;56.17;94828.53;5040310;28;20403;-76
2023/08/10 00:10:40;;;;;;;1.63;1.30;;;;;;;20.65;56.04;94828.00;5040110;28;20965;-77
2023/08/10 00:13:06;;;;;;;1.10;1.00;;;;;;;20.59;55.99;94796.19;5040207;28;20413;-76
2023/08/10 00:15:31;;;;;;;2.83;1.27;;;;;;;20.76;56.01;94819.94;5038532;28;20654;-77
2023/08/10 00:17:57;;;;;;;3.80;1.00;;;;;;;20.66;56.26;94821.59;5043495;28;20895;-76
2023/08/10 00:20:22;;;;;;;1.30;0.90;;;;;;;20.59;56.47;94830.97;5044707;28;20898;-76
2023/08/10 00:22:47;;;;;;;4.03;1.20;;;;;;;20.57;57.06;94827.78;5045775;28;20461;-77
2023/08/10 00:25:13;;;;;;;3.05;1.33;;;;;;;20.53;57.11;94824.03;5043866;28;20952;-76
2023/08/10 00:27:39;;;;;;;2.00;1.20;;;;;;;20.41;57.10;94827.00;5042813;28;20414;-76
2023/08/10 00:30:06;;;;;;;1.50;1.10;;;;;;;20.33;57.52;94820.31;5042518;28;20460;-76
2023/08/10 00:32:31;;;;;;;1.23;1.05;;;;;;;20.39;57.39;94810.47;5036968;28;20498;-76
2023/08/10 00:34:57;;;;;;;2.22;1.00;;;;;;;20.32;57.66;94809.94;5044233;28;20445;-77
2023/08/10 00:37:23;;;;;;;1.23;1.10;;;;;;;20.33;58.01;94812.31;5044424;28;20410;-77
2023/08/10 00:39:48;;;;;;;1.40;1.20;;;;;;;20.43;57.79;94811.50;5044279;28;20419;-76
2023/08/10 00:42:13;;;;;;;2.60;1.00;;;;;;;20.33;57.44;94800.81;5033587;28;20765;-76
2023/08/10 00:44:39;;;;;;;1.70;1.30;;;;;;;20.38;57.78;94805.38;5037118;28;20413;-77
2023/08/10 00:47:06;;;;;;;2.10;1.20;;;;;;;20.40;57.20;94804.03;5032968;28;20423;-76
2023/08/10 00:49:32;;;;;;;2.08;1.00;;;;;;;20.37;57.33;94801.09;5035914;28;20433;-76
2023/08/10 00:51:59;;;;;;;1.63;1.30;;;;;;;20.28;57.93;94798.97;5022584;28;20797;-76
2023/08/10 00:54:24;;;;;;;1.80;1.10;;;;;;;20.19;58.18;94789.91;5047055;28;20424;-77
2023/08/10 00:56:50;;;;;;;3.80;1.00;;;;;;;20.02;58.56;94762.69;5037473;28;20448;-76
2023/08/10 00:59:16;;;;;;;2.25;1.15;;;;;;;20.09;58.32;94773.09;5044475;28;20406;-76
2023/08/10 01:01:41;;;;;;;2.90;1.13;;;;;;;20.22;57.91;94792.03;5035446;28;20434;-76
2023/08/10 01:04:07;;;;;;;1.77;1.10;;;;;;;20.20;58.05;94788.03;5035580;28;20459;-76
2023/08/10 01:07:10;;;;;;;3.00;1.20;;;;;;;20.17;57.95;94797.38;5019355;28;20477;-76
2023/08/10 01:09:54;;;;;;;1.40;1.00;;;;;;;20.15;57.96;94786.16;5046093;28;20446;-76
2023/08/10 01:12:30;;;;;;;1.30;1.20;;;;;;;20.22;57.79;94791.25;5045368;28;20996;-76
2023/08/10 01:15:05;;;;;;;2.10;1.30;;;;;;;20.13;58.24;94785.66;5045860;28;20407;-76
2023/08/10 01:17:36;;;;;;;1.40;1.00;;;;;;;20.11;58.33;94793.13;5046506;28;20403;-76
2023/08/10 01:20:04;;;;;;;1.93;1.20;;;;;;;20.21;58.21;94809.16;5040460;28;20439;-76
2023/08/10 01:22:41;;;;;;;1.42;1.02;;;;;;;20.04;58.76;94797.16;5044711;28;20948;-76
2023/08/10 01:25:09;;;;;;;1.60;1.45;;;;;;;19.96;58.26;94772.59;5034453;28;20416;-76
2023/08/10 01:27:35;;;;;;;1.45;1.00;;;;;;;20.15;58.08;94799.53;5034642;28;20415;-76
2023/08/10 01:30:02;;;;;;;2.45;1.20;;;;;;;20.25;57.41;94801.38;5042030;28;20966;-76
2023/08/10 01:32:31;;;;;;;1.42;1.13;;;;;;;20.14;57.33;94797.16;5021857;28;20844;-76
2023/08/10 01:34:56;;;;;;;1.93;1.10;;;;;;;19.98;58.07;94783.78;5042273;28;20533;-76
2023/08/10 01:37:22;;;;;;;2.60;1.00;;;;;;;20.13;58.19;94807.03;5046548;28;20483;-77
2023/08/10 01:39:48;;;;;;;2.70;1.10;;;;;;;20.08;58.01;94784.84;5039395;28;20488;-77
2023/08/10 01:42:13;;;;;;;1.27;1.15;;;;;;;20.25;57.20;94786.13;5015331;28;20784;-76
2023/08/10 01:44:39;;;;;;;1.02;1.00;;;;;;;20.30;56.99;94798.69;5032105;28;20918;-77
2023/08/10 01:47:24;;;;;;;1.67;0.95;;;;;;;20.18;57.38;94796.31;5021361;28;20418;-76
2023/08/10 01:49:56;;;;;;;1.17;1.10;;;;;;;20.11;58.03;94805.69;5043500;28;20423;-77
2023/08/10 01:52:26;;;;;;;2.15;1.10;;;;;;;20.11;58.36;94808.38;5045884;28;20473;-77
2023/08/10 01:54:52;;;;;;;2.00;1.15;;;;;;;20.11;57.98;94813.72;5040896;28;20449;-76
2023/08/10 01:57:18;;;;;;;1.30;1.20;;;;;;;20.09;58.12;94791.78;5036178;28;20811;-77
2023/08/10 01:59:44;;;;;;;1.17;1.08;;;;;;;20.02;58.37;94794.75;5042243;28;20555;-77
2023/08/10 02:02:09;;;;;;;2.13;0.97;;;;;;;19.98;58.06;94784.91;5041468;28;20411;-77
2023/08/10 02:04:34;;;;;;;1.98;1.08;;;;;;;19.96;58.55;94790.50;5039960;28;20178;-75
2023/08/10 02:07:01;;;;;;;2.67;1.00;;;;;;;19.98;58.36;94791.81;5032859;28;20420;-75
2023/08/10 02:09:26;;;;;;;1.53;1.10;;;;;;;19.99;58.39;94808.66;5030125;28;20468;-75
2023/08/10 02:11:52;;;;;;;2.00;1.00;;;;;;;19.86;58.72;94802.00;5029278;28;20448;-75
2023/08/10 02:14:17;;;;;;;1.67;1.00;;;;;;;19.86;58.97;94804.69;5042935;28;20417;-75
2023/08/10 02:16:43;;;;;;;4.37;1.10;;;;;;;19.91;59.23;94818.03;5028947;28;20419;-75
2023/08/10 02:19:08;;;;;;;1.20;1.10;;;;;;;19.74;58.88;94808.69;5045663;28;21287;-76
2023/08/10 02:21:33;;;;;;;1.45;1.00;;;;;;;20.02;58.52;94824.16;5021870;28;20202;-75
2023/08/10 02:23:59;;;;;;;1.60;0.90;;;;;;;20.09;58.44;94834.56;5030034;28;20427;-75
2023/08/10 02:26:24;;;;;;;2.15;1.58;;;;;;;19.96;59.26;94847.44;5029829;28;20222;-75
2023/08/10 02:28:49;;;;;;;2.63;1.58;;;;;;;19.91;58.87;94849.28;5029658;28;20198;-76
2023/08/10 02:31:15;;;;;;;2.08;1.40;;;;;;;19.96;59.37;94868.00;5044105;28;20215;-76
2023/08/10 02:33:40;;;;;;;2.65;1.20;;;;;;;20.07;58.69;94871.44;5040543;28;20409;-75
2023/08/10 02:36:06;;;;;;;3.63;1.70;;;;;;;20.04;59.25;94885.38;5045809;28;20179;-76
2023/08/10 02:38:31;;;;;;;3.80;2.83;;;;;;;20.04;60.65;94896.06;5043392;28;20261;-75
2023/08/10 02:40:56;;;;;;;1.98;1.20;;;;;;;19.94;60.86;94896.84;5041443;28;20163;-75
2023/08/10 02:43:22;;;;;;;4.10;3.08;;;;;;;19.88;64.10;94906.75;5039463;28;20271;-76
2023/08/10 02:45:47;;;;;;;5.57;1.93;;;;;;;19.33;69.45;94907.47;5033689;28;20820;-75
2023/08/10 02:48:13;;;;;;;1.77;1.50;;;;;;;19.06;71.96;94880.16;5037267;28;20650;-76
2023/08/10 02:50:38;;;;;;;4.43;1.70;;;;;;;19.25;73.61;94915.19;5040124;28;20191;-76
2023/08/10 02:53:05;;;;;;;2.85;1.92;;;;;;;19.24;75.32;94930.38;5041752;28;20185;-76
2023/08/10 02:55:30;;;;;;;2.75;1.58;;;;;;;19.26;75.65;94938.94;5028503;28;20710;-76
2023/08/10 02:57:56;;;;;;;6.15;2.22;;;;;;;19.24;76.31;94941.06;5039128;28;20160;-76
2023/08/10 03:00:22;;;;;;;5.15;2.72;;;;;;;19.16;78.11;94929.03;5047386;28;20526;-76
2023/08/10 03:02:50;;;;;;;8.95;4.18;;;;;;;19.13;79.07;94942.91;5042079;28;20167;-76
2023/08/10 03:05:18;;;;;;;7.47;3.10;;;;;;;19.10;79.09;94940.78;5036629;28;20187;-76
2023/08/10 03:07:44;;;;;;;5.60;2.22;;;;;;;19.03;77.01;94940.19;5043510;28;20182;-76
2023/08/10 03:10:10;;;;;;;8.88;3.90;;;;;;;18.90;80.07;94935.34;5035040;28;20486;-76
2023/08/10 03:12:35;;;;;;;8.05;2.75;;;;;;;18.87;81.78;94941.19;5044005;28;20167;-76
2023/08/10 03:15:01;;;;;;;7.90;2.80;;;;;;;18.83;81.79;94932.13;5044417;28;20555;-76
2023/08/10 03:17:27;;;;;;;6.22;2.67;;;;;;;18.45;84.10;94938.53;5044259;28;20407;-76
2023/08/10 03:19:52;;;;;;;4.63;2.10;;;;;;;18.20;84.22;94930.38;5044471;28;20407;-76
2023/08/10 03:22:18;;;;;;;3.97;2.30;;;;;;;17.87;86.11;94928.81;5043955;28;20472;-76
2023/08/10 03:24:43;;;;;;;4.10;2.37;;;;;;;17.73;87.68;94928.41;5051533;28;20464;-75
2023/08/10 03:27:09;;;;;;;4.60;2.33;;;;;;;17.73;87.83;94931.06;5032252;28;20446;-74
2023/08/10 03:29:34;;;;;;;1.63;1.52;;;;;;;17.83;85.93;94915.19;5041946;28;20199;-74
2023/08/10 03:32:00;;;;;;;3.90;2.00;;;;;;;18.00;84.82;94931.03;5040050;28;20212;-75
2023/08/10 03:34:25;;;;;;;5.60;2.10;;;;;;;18.10;85.95;94934.56;5050515;28;20638;-75
2023/08/10 03:36:51;;;;;;;3.53;2.05;;;;;;;18.15;86.62;94933.03;5037054;28;20963;-75
2023/08/10 03:39:16;;;;;;;4.18;2.40;;;;;;;18.28;86.56;94936.03;5041130;28;20225;-75
2023/08/10 03:41:41;;;;;;;2.90;2.40;;;;;;;18.29;85.97;94934.97;5041147;28;20521;-75
2023/08/10 03:44:07;;;;;;;3.53;2.10;;;;;;;18.36;86.18;94943.53;5038601;28;20187;-75
2023/08/10 03:46:32;;;;;;;5.07;1.90;;;;;;;18.30;86.47;94925.94;5039574;28;20176;-75
2023/08/10 03:48:57;;;;;;;2.65;2.10;;;;;;;18.33;86.80;94938.75;5042919;28;20176;-75
2023/08/10 03:51:23;;;;;;;3.90;2.30;;;;;;;18.45;87.49;94954.53;5039253;28;20606;-75
2023/08/10 03:53:48;;;;;;;2.55;2.08;;;;;;;18.46;87.69;94961.47;5037636;28;20214;-75
2023/08/10 03:56:14;;;;;;;3.50;2.45;;;;;;;18.48;87.42;94965.50;5044807;28;20538;-75
2023/08/10 03:58:39;;;;;;;5.85;2.47;;;;;;;18.48;87.50;94968.16;5035233;28;20175;-75
2023/08/10 04:01:06;;;;;;;4.20;2.30;;;;;;;18.46;87.67;94980.94;5043459;28;20225;-75
2023/08/10 04:03:33;;;;;;;2.45;2.25;;;;;;;18.48;87.80;94986.03;5045184;28;20176;-75
2023/08/10 04:05:59;;;;;;;3.65;2.38;;;;;;;18.46;87.97;94982.81;5042442;28;20171;-75
2023/08/10 04:08:24;;;;;;;5.00;2.30;;;;;;;18.46;88.06;94980.13;5041211;28;20661;-75
2023/08/10 04:10:49;;;;;;;4.03;2.38;;;;;;;18.42;88.48;94965.72;5043030;28;20702;-75
2023/08/10 04:13:15;;;;;;;2.60;2.10;;;;;;;18.40;89.19;94965.97;5042056;28;20179;-75
2023/08/10 04:15:40;;;;;;;3.53;2.35;;;;;;;18.40;89.94;94967.84;5036196;28;20218;-75
2023/08/10 04:18:06;;;;;;;7.30;3.20;;;;;;;18.39;89.55;94983.03;5040740;28;20246;-76
2023/08/10 04:20:31;;;;;;;6.87;3.80;;;;;;;18.26;89.47;94987.97;5035258;28;20449;-75
2023/08/10 04:22:59;;;;;;;9.30;5.00;;;;;;;17.64;90.94;94985.84;5031120;28;20828;-75
2023/08/10 04:25:24;;;;;;;8.70;3.88;;;;;;;17.71;92.13;95007.75;5033026;28;20237;-75
2023/08/10 04:27:50;;;;;;;7.15;3.65;;;;;;;17.89;92.38;95009.25;5037808;28;20175;-77
2023/08/10 04:30:16;;;;;;;5.30;3.83;;;;;;;17.85;92.11;94997.50;5045594;28;20602;-77
2023/08/10 04:32:42;;;;;;;6.72;3.95;;;;;;;18.05;91.71;95019.81;5043457;28;20170;-77
2023/08/10 04:35:08;;;;;;;5.50;3.20;;;;;;;17.83;91.28;95002.25;5033357;28;20417;-77
2023/08/10 04:37:33;;;;;;;6.45;3.10;;;;;;;17.91;90.99;95023.13;5029019;28;20441;-76
2023/08/10 04:39:59;;;;;;;5.07;3.22;;;;;;;17.84;90.88;95012.66;5040451;28;20926;-76
2023/08/10 04:42:24;;;;;;;5.87;3.00;;;;;;;17.91;90.86;95026.59;5038455;28;20407;-76
2023/08/10 04:44:50;;;;;;;7.85;2.92;;;;;;;17.90;90.78;95010.88;5019255;28;20191;-76
2023/08/10 04:47:15;;;;;;;4.65;2.65;;;;;;;18.09;90.73;95023.56;5037550;28;20186;-77
2023/08/10 04:49:41;;;;;;;6.90;3.40;;;;;;;18.14;91.17;95022.81;5038625;28;20618;-77
2023/08/10 04:52:07;;;;;;;10.20;5.22;;;;;;;18.24;90.52;95024.75;5043682;28;20264;-76
2023/08/10 04:54:32;;;;;;;11.25;5.78;;;;;;;18.19;89.98;95008.72;5023340;28;20187;-77
2023/08/10 04:56:58;;;;;;;20.13;11.50;;;;;;;18.16;90.11;95009.25;5041293;28;20315;-75
2023/08/10 04:59:23;;;;;;;6.47;4.72;;;;;;;18.16;89.01;95028.69;5038791;28;20200;-76
2023/08/10 05:01:48;;;;;;;7.68;3.80;;;;;;;17.95;89.69;95021.56;5041184;28;20182;-76
2023/08/10 05:04:15;;;;;;;10.50;6.80;;;;;;;17.86;90.52;95012.44;5039168;28;20198;-75
2023/08/10 05:06:41;;;;;;;7.72;4.32;;;;;;;17.57;91.86;95019.81;5039839;28;20413;-75
2023/08/10 05:09:06;;;;;;;8.93;5.20;;;;;;;17.25;93.29;95017.06;5037053;28;20415;-75
2023/08/10 05:11:32;;;;;;;6.23;4.13;;;;;;;17.18;93.48;95011.94;5044980;28;20425;-75
2023/08/10 05:13:58;;;;;;;3.90;2.70;;;;;;;17.12;93.97;94996.16;5046292;28;20411;-75
2023/08/10 05:16:23;;;;;;;5.25;3.15;;;;;;;17.21;93.82;95006.09;5020318;28;20264;-75
2023/08/10 05:18:50;;;;;;;5.53;2.50;;;;;;;17.10;93.20;94984.97;5033352;28;20262;-75
2023/08/10 05:21:16;;;;;;;6.45;3.45;;;;;;;17.02;93.55;94953.47;5042931;28;20213;-75
2023/08/10 05:23:41;;;;;;;3.88;2.60;;;;;;;17.32;94.43;94983.06;5033223;28;20186;-75
2023/08/10 05:26:08;;;;;;;11.77;3.42;;;;;;;17.46;93.66;95002.13;5044224;28;20178;-74
2023/08/10 05:28:33;;;;;;;6.88;2.58;;;;;;;17.44;92.61;95004.25;5015184;28;20191;-75
2023/08/10 05:30:59;;;;;;;3.50;2.73;;;;;;;17.20;92.87;95001.03;5045325;28;20506;-76
2023/08/10 05:33:24;;;;;;;5.22;2.80;;;;;;;17.03;94.00;94979.03;5035913;28;20183;-76
2023/08/10 05:35:50;;;;;;;7.70;3.15;;;;;;;17.17;95.17;94990.88;5042964;28;20175;-76
2023/08/10 05:38:15;;;;;;;4.73;2.73;;;;;;;17.13;95.51;94969.28;5024713;28;20072;-76
2023/08/10 05:40:40;;;;;;;4.80;3.00;;;;;;;17.34;95.13;94986.31;5034881;28;20475;-76
2023/08/10 05:43:07;;;;;;;6.23;3.30;;;;;;;17.32;94.22;94967.09;5034335;28;20492;-76
2023/08/10 05:45:32;;;;;;;4.03;2.90;;;;;;;17.25;93.70;94972.63;5037847;28;20202;-76
2023/08/10 05:47:57;;;;;;;4.17;3.00;;;;;;;17.19;93.93;94991.44;5035967;28;20494;-76
2023/08/10 05:50:23;;;;;;;5.73;3.60;;;;;;;17.18;95.22;94989.84;5029558;28;20432;-76
2023/08/10 05:52:48;;;;;;;4.77;2.60;;;;;;;17.33;93.45;94998.78;5034972;28;20401;-76
2023/08/10 05:55:14;;;;;;;3.37;2.33;;;;;;;17.48;92.37;94998.16;5030491;28;20409;-77
2023/08/10 05:57:41;;;;;;;5.13;2.60;;;;;;;17.46;91.89;95002.94;5048212;28;20418;-77
2023/08/10 06:00:08;;;;;;;4.18;2.72;;;;;;;17.46;92.41;95000.28;5036648;28;20914;-77
2023/08/10 06:02:34;;;;;;;3.60;2.75;;;;;;;17.40;92.29;94982.63;5033276;28;20432;-77
2023/08/10 06:04:59;;;;;;;2.58;2.38;;;;;;;17.44;91.69;94991.75;5033644;28;20222;-76
2023/08/10 06:07:25;;;;;;;2.90;2.37;;;;;;;17.29;93.05;94999.56;5040326;28;20915;-76
2023/08/10 06:09:51;;;;;;;4.75;2.65;;;;;;;17.02;93.06;94991.53;5036902;28;20431;-76
2023/08/10 06:12:17;;;;;;;4.27;2.70;;;;;;;17.08;93.46;94987.06;5048008;28;20417;-77
2023/08/10 06:14:44;;;;;;;4.95;2.50;;;;;;;16.99;92.38;94992.00;5035036;28;20412;-76
2023/08/10 06:17:09;;;;;;;3.47;2.58;;;;;;;16.95;93.73;94981.03;5044169;28;20220;-78
2023/08/10 06:19:35;;;;;;;5.03;2.95;;;;;;;17.14;94.39;94988.72;5038147;28;20172;-77
2023/08/10 06:22:00;;;;;;;5.70;3.13;;;;;;;17.21;94.87;94997.34;5040059;28;20405;-78
2023/08/10 06:24:26;;;;;;;4.95;3.30;;;;;;;17.10;95.25;94980.44;5032472;28;20429;-77
2023/08/10 06:26:51;;;;;;;4.55;3.13;;;;;;;17.17;95.13;94990.88;5038978;28;20176;-77
2023/08/10 06:29:17;;;;;;;5.87;3.27;;;;;;;17.32;95.55;95007.03;5041864;28;20424;-76
2023/08/10 06:31:42;;;;;;;8.80;3.80;;;;;;;17.44;95.26;95025.53;5042155;28;20311;-76
2023/08/10 06:34:09;;;;;;;6.65;4.40;;;;;;;17.44;95.64;95012.22;5041758;28;20294;-78
2023/08/10 06:36:34;;;;;;;5.13;3.40;;;;;;;17.61;95.86;95034.25;5038168;28;20203;-79
2023/08/10 06:39:00;;;;;;;7.00;3.38;;;;;;;17.69;95.71;95037.28;5047249;28;20304;-78
2023/08/10 06:41:25;;;;;;;5.72;3.40;;;;;;;17.83;95.97;95037.69;5038918;28;20203;-78
2023/08/10 06:43:51;;;;;;;7.45;3.50;;;;;;;17.88;95.93;95036.94;5042048;28;20520;-77
2023/08/10 06:46:16;;;;;;;3.90;3.35;;;;;;;17.91;95.82;95029.25;5050496;28;20171;-77
2023/08/10 06:48:42;;;;;;;8.68;2.83;;;;;;;18.05;95.71;95037.66;5040660;28;20178;-78
2023/08/10 06:51:07;;;;;;;6.20;3.13;;;;;;;18.14;95.45;95030.00;5040410;28;20203;-77
2023/08/10 06:53:33;;;;;;;12.20;6.45;;;;;;;18.18;94.81;95031.91;5044089;28;20240;-77
2023/08/10 06:55:59;;;;;;;24.88;13.82;;;;;;;18.23;93.88;95042.63;5050112;28;20179;-75
2023/08/10 06:58:26;;;;;;;19.60;12.35;;;;;;;18.25;93.71;95043.13;5042948;28;20171;-77
2023/08/10 07:00:51;;;;;;;7.20;5.05;;;;;;;18.32;93.34;95037.63;5042060;28;20178;-76
2023/08/10 07:03:17;;;;;;;9.95;3.83;;;;;;;18.36;92.88;95046.69;5025323;28;20179;-77
2023/08/10 07:05:43;;;;;;;5.38;4.35;;;;;;;18.39;92.42;95041.69;5049212;28;20171;-78
2023/08/10 07:08:09;;;;;;;6.93;3.92;;;;;;;18.37;92.67;95027.78;5034249;28;20237;-77
2023/08/10 07:10:37;;;;;;;3.83;2.70;;;;;;;18.48;90.36;95050.00;5044775;28;20192;-75
2023/08/10 07:13:03;;;;;;;4.82;3.83;;;;;;;18.48;89.95;95048.16;5037231;28;20171;-76
2023/08/10 07:15:31;;;;;;;9.00;4.40;;;;;;;18.51;90.61;95041.47;5047771;28;20673;-76
2023/08/10 07:17:57;;;;;;;8.07;3.78;;;;;;;18.44;90.86;95035.56;5049072;28;20168;-76
2023/08/10 07:20:23;;;;;;;5.80;4.65;;;;;;;18.58;89.71;95041.31;5040754;28;20176;-75
2023/08/10 07:22:49;;;;;;;9.00;5.10;;;;;;;18.36;90.81;94996.06;5038334;28;20254;-76
2023/08/10 07:25:17;;;;;;;7.53;3.85;;;;;;;18.44;88.50;95044.38;5035139;28;20243;-76
2023/08/10 07:27:43;;;;;;;3.95;3.53;;;;;;;18.28;88.84;95018.66;5044557;28;20260;-75
2023/08/10 07:30:10;;;;;;;6.88;5.20;;;;;;;18.50;90.22;95047.09;5034825;28;20228;-76
2023/08/10 07:32:36;;;;;;;4.15;3.75;;;;;;;18.72;92.23;95050.47;5051639;28;20209;-76
2023/08/10 07:35:02;;;;;;;4.22;3.17;;;;;;;18.87;90.56;95047.09;5042703;28;20175;-76
2023/08/10 07:37:28;;;;;;;4.57;3.50;;;;;;;18.94;87.61;95058.38;5038939;28;20176;-76
2023/08/10 07:39:53;;;;;;;5.50;3.05;;;;;;;19.13;89.97;95049.66;5047441;28;20233;-76
2023/08/10 07:42:19;;;;;;;5.88;3.00;;;;;;;19.27;88.77;95041.19;5038260;28;20244;-75
2023/08/10 07:44:44;;;;;;;3.75;2.70;;;;;;;19.34;85.24;95057.78;5021506;28;20662;-76
2023/08/10 07:47:09;;;;;;;3.50;3.20;;;;;;;19.34;85.54;95047.09;5045901;28;20186;-76
2023/08/10 07:49:35;;;;;;;4.88;3.47;;;;;;;19.38;86.12;95050.81;5044827;28;20241;-76
2023/08/10 07:52:00;;;;;;;4.07;2.70;;;;;;;19.20;83.65;95050.22;5035330;28;20179;-75
2023/08/10 07:54:27;;;;;;;3.78;2.42;;;;;;;19.16;81.80;95062.50;5044596;28;20570;-76
2023/08/10 07:56:53;;;;;;;4.38;2.72;;;;;;;19.14;82.52;95058.47;5042240;28;20163;-77
2023/08/10 07:59:18;;;;;;;5.13;2.80;;;;;;;19.15;84.34;95052.88;5044408;28;20171;-76
2023/08/10 08:01:44;;;;;;;3.20;2.80;;;;;;;19.38;84.31;95062.31;5046377;28;20599;-76
2023/08/10 08:04:10;;;;;;;3.35;2.13;;;;;;;19.31;78.31;95048.41;5043524;28;20171;-75
2023/08/10 08:06:36;;;;;;;8.02;2.50;;;;;;;19.35;82.62;95052.19;5041713;28;20697;-78
2023/08/10 08:09:04;;;;;;;6.07;2.70;;;;;;;19.43;80.80;95045.53;5040385;28;20160;-77
2023/08/10 08:11:30;;;;;;;4.35;2.60;;;;;;;19.65;82.53;95064.06;5037264;28;20179;-78
2023/08/10 08:13:56;;;;;;;5.00;2.42;;;;;;;19.67;79.47;95062.75;5043163;28;20171;-76
2023/08/10 08:16:21;;;;;;;7.93;4.85;;;;;;;19.60;79.78;95062.19;5051226;28;20178;-76
2023/08/10 08:18:52;;;;;;;13.10;8.07;;;;;;;19.68;81.66;95067.03;5037815;28;20176;-78
2023/08/10 08:21:20;;;;;;;9.02;6.10;;;;;;;19.50;79.38;95064.81;5046577;28;20167;-77
2023/08/10 08:23:47;;;;;;;13.32;9.20;;;;;;;;;;5041742;28;20187;-76
2023/08/10 08:26:14;;;;;;;6.35;4.22;;;;;;;19.58;81.44;95059.78;5028079;28;20183;-77
2023/08/10 08:28:40;;;;;;;3.00;2.40;;;;;;;19.46;78.48;95055.69;5040132;28;20188;-78
2023/08/10 08:31:06;;;;;;;13.30;9.02;;;;;;;19.52;81.44;95068.84;5041272;28;20725;-75
2023/08/10 08:33:32;;;;;;;3.20;2.90;;;;;;;19.57;79.40;95062.69;5044522;28;20277;-74
2023/08/10 08:35:58;;;;;;;11.65;7.15;;;;;;;19.76;79.47;95069.19;5013947;28;20255;-75
2023/08/10 08:38:24;;;;;;;2.42;1.50;;;;;;;19.89;77.46;95070.56;5042754;28;21069;-76
2023/08/10 08:40:50;;;;;;;2.25;2.05;;;;;;;20.16;77.39;95068.47;5044319;28;20261;-77
2023/08/10 08:43:17;;;;;;;9.52;4.93;;;;;;;20.30;75.66;95071.44;5028694;28;20234;-76
2023/08/10 08:45:43;;;;;;;9.25;2.33;;;;;;;20.25;74.82;95058.03;5042453;28;20168;-76
2023/08/10 08:48:10;;;;;;;13.68;9.55;;;;;;;20.34;76.39;95069.84;5051201;28;20579;-77
2023/08/10 08:50:36;;;;;;;2.10;1.90;;;;;;;20.60;74.22;95050.06;5040444;28;20195;-77
2023/08/10 08:53:07;;;;;;;4.85;2.42;;;;;;;20.96;74.46;95071.44;5046169;28;20244;-77
2023/08/10 08:55:32;;;;;;;2.60;1.88;;;;;;;21.18;71.80;95077.34;5046471;28;20249;-77
2023/08/10 08:57:58;;;;;;;3.85;2.63;;;;;;;21.30;69.49;95077.81;5042835;28;20175;-77
2023/08/10 09:00:24;;;;;;;3.05;1.60;;;;;;;21.62;69.74;95076.66;5041357;28;20195;-76
2023/08/10 09:02:50;;;;;;;2.88;2.40;;;;;;;21.77;68.82;95076.59;5027651;28;20181;-77
2023/08/10 09:05:17;;;;;;;2.50;2.10;;;;;;;21.94;70.32;95074.38;5045635;28;20250;-76
2023/08/10 09:07:43;;;;;;;5.50;2.25;;;;;;;21.99;67.34;95078.91;5037249;28;20167;-75
2023/08/10 09:10:08;;;;;;;6.95;2.83;;;;;;;21.95;65.10;95078.66;5033923;28;20249;-74
2023/08/10 09:12:36;;;;;;;3.97;2.45;;;;;;;21.82;67.28;95052.44;5040717;28;20198;-77
2023/08/10 09:15:04;;;;;;;11.45;6.50;;;;;;;21.90;67.88;95057.22;5025438;28;20195;-76
2023/08/10 09:17:31;;;;;;;6.57;2.83;;;;;;;21.89;66.97;95077.06;5044300;28;20240;-78
2023/08/10 09:19:56;;;;;;;8.77;6.32;;;;;;;21.94;70.05;95076.25;5042118;28;20677;-76
2023/08/10 09:22:32;;;;;;;6.45;2.70;;;;;;;22.01;69.90;95074.09;5045573;28;20194;-79
2023/08/10 09:24:58;;;;;;;3.63;2.22;;;;;;;21.98;67.69;95069.25;5037707;28;20236;-76
2023/08/10 09:27:27;;;;;;;3.40;2.63;;;;;;;22.07;66.92;95081.81;5036437;28;20642;-75
2023/08/10 09:29:57;;;;;;;16.60;11.40;;;;;;;22.19;68.20;95076.13;5032586;28;20195;-77
2023/08/10 09:32:22;;;;;;;1.90;1.67;;;;;;;22.19;66.80;95054.66;5039871;28;20184;-77
2023/08/10 09:34:48;;;;;;;5.38;3.80;;;;;;;22.36;65.25;95075.75;5034719;28;20182;-77
2023/08/10 09:37:13;;;;;;;7.38;4.93;;;;;;;22.38;67.88;95054.81;5046622;28;20174;-77
2023/08/10 09:39:39;;;;;;;9.50;6.68;;;;;;;22.62;68.21;95069.13;5034743;28;20176;-77
2023/08/10 09:42:05;;;;;;;4.53;2.85;;;;;;;22.64;67.60;95048.16;5042561;28;20668;-77
2023/08/10 09:44:47;;;;;;;16.25;11.13;;;;;;;22.83;67.83;95057.13;5040524;28;20710;-76
2023/08/10 09:47:14;;;;;;;6.32;3.20;;;;;;;22.92;67.14;95057.31;5033103;28;20191;-77
2023/08/10 09:49:56;;;;;;;5.00;3.88;;;;;;;22.73;67.10;95059.09;5039093;28;20203;-75
2023/08/10 09:52:25;;;;;;;4.88;3.30;;;;;;;22.48;65.46;95057.44;5041186;28;20182;-76
2023/08/10 09:54:53;;;;;;;11.27;6.60;;;;;;;22.57;65.35;95064.56;5023207;28;20947;-76
2023/08/10 09:57:19;;;;;;;3.50;2.55;;;;;;;22.68;64.51;95051.06;5035303;28;20202;-77
2023/08/10 09:59:45;;;;;;;2.47;2.10;;;;;;;22.61;64.22;95048.72;5038478;28;20964;-77
2023/08/10 10:02:11;;;;;;;3.15;1.80;;;;;;;22.58;62.92;95065.38;5045836;28;20177;-75
2023/08/10 10:04:38;;;;;;;2.55;2.20;;;;;;;22.30;65.76;95045.47;5046045;28;20178;-76
2023/08/10 10:07:05;;;;;;;1.95;1.85;;;;;;;22.24;63.24;95035.84;5042687;28;20547;-77
2023/08/10 10:09:33;;;;;;;5.95;3.45;;;;;;;22.52;65.17;95061.13;5041523;28;20195;-77
2023/08/10 10:12:00;;;;;;;3.65;2.03;;;;;;;22.68;64.32;95061.81;5038613;28;20258;-77
2023/08/10 10:14:26;;;;;;;3.58;1.70;;;;;;;22.86;63.69;95064.63;5036880;28;20225;-77
2023/08/10 10:16:53;;;;;;;2.35;1.90;;;;;;;22.90;62.66;95060.31;5034260;28;20263;-77
2023/08/10 10:19:19;;;;;;;3.03;2.33;;;;;;;22.99;63.33;95055.13;5027584;28;20182;-77
2023/08/10 10:21:45;;;;;;;2.08;1.55;;;;;;;22.97;61.72;95065.34;5028386;28;20172;-77
2023/08/10 10:24:13;;;;;;;1.85;1.70;;;;;;;22.91;62.58;95050.38;5046703;28;20524;-77
2023/08/10 10:26:39;;;;;;;2.65;1.58;;;;;;;22.89;61.73;95037.22;5048153;28;20613;-77
2023/08/10 10:29:16;;;;;;;2.15;1.60;;;;;;;22.95;62.99;95029.91;5041139;28;20233;-77
2023/08/10 10:31:42;;;;;;;3.22;1.83;;;;;;;23.17;63.77;95040.19;5028276;28;20223;-77
2023/08/10 10:34:13;;;;;;;2.83;1.80;;;;;;;23.38;60.42;95046.91;5028731;28;20176;-77
2023/08/10 10:36:39;;;;;;;1.70;1.60;;;;;;;23.01;59.81;95033.34;5033160;28;20171;-77
2023/08/10 10:39:07;;;;;;;3.22;2.42;;;;;;;23.02;61.68;95043.78;5045825;28;20622;-77
2023/08/10 10:41:39;;;;;;;2.00;1.70;;;;;;;23.07;63.96;95043.75;5034735;28;20233;-77
2023/08/10 10:44:06;;;;;;;2.83;1.80;;;;;;;22.86;60.24;95021.66;5029007;28;20179;-77
2023/08/10 10:46:31;;;;;;;2.38;1.73;;;;;;;22.61;62.29;95035.28;5033612;28;20563;-77
2023/08/10 10:48:57;;;;;;;4.25;1.45;;;;;;;22.32;61.25;95029.88;5048581;28;20185;-77
2023/08/10 10:51:24;;;;;;;2.13;1.83;;;;;;;22.42;62.73;95045.91;5033345;28;20257;-77
2023/08/10 10:53:53;;;;;;;3.97;1.60;;;;;;;22.54;62.52;95042.88;5010990;28;20188;-77
2023/08/10 10:56:19;;;;;;;8.40;2.25;;;;;;;22.32;61.01;95037.94;5034412;28;20199;-77
2023/08/10 10:58:46;;;;;;;3.85;1.70;;;;;;;22.33;60.87;95041.41;5037058;28;20211;-76
2023/08/10 11:01:12;;;;;;;2.15;1.80;;;;;;;22.32;61.73;95037.94;5035877;28;20184;-77
2023/08/10 11:03:42;;;;;;;3.70;2.00;;;;;;;22.05;61.82;95032.25;5036493;28;20184;-76
2023/08/10 11:06:18;;;;;;;1.60;1.50;;;;;;;21.86;64.33;95029.38;5020177;28;20262;-77
2023/08/10 11:08:48;;;;;;;3.40;2.35;;;;;;;21.69;66.01;95029.72;5040753;28;20178;-77
2023/08/10 11:11:14;;;;;;;2.55;1.95;;;;;;;21.83;65.76;95027.22;5040807;28;20378;-78
2023/08/10 11:13:39;;;;;;;3.05;1.80;;;;;;;21.98;63.31;95035.22;5034647;28;20207;-77
2023/08/10 11:16:05;;;;;;;3.58;2.00;;;;;;;22.01;64.16;95034.66;5041609;28;20237;-77
2023/08/10 11:18:31;;;;;;;2.65;1.77;;;;;;;22.16;64.65;95018.47;5042363;28;20704;-77
2023/08/10 11:20:56;;;;;;;2.70;1.65;;;;;;;22.31;61.98;95020.25;5039376;28;20203;-77
2023/08/10 11:23:25;;;;;;;4.10;1.85;;;;;;;22.60;62.80;95028.31;5040176;28;20198;-77
2023/08/10 11:25:51;;;;;;;1.75;1.58;;;;;;;22.72;62.14;95036.00;5041762;28;20175;-77
2023/08/10 11:28:19;;;;;;;3.63;1.70;;;;;;;22.95;60.74;95030.72;5038902;28;20627;-77
2023/08/10 11:30:45;;;;;;;2.63;1.70;;;;;;;23.18;61.41;95022.94;5037514;28;20222;-77